Time;durP1;ratioP1;P1;durP2;ratioP2;P2;SDS_P1;SDS_P2;PMS_P1;PMS_P2;Temp;Humidity;BMP_temperature;BMP_pressure;BME280_temperature;BME280_humidity;BME280_pressure;Samples;Min_cycle;Max_cycle;Signal;HPM_P1;HPM_P2
2022/06/17 00:00:42;;;;;;;17.38;16.38;;;;;;;;;;5019174;28;20041;-69
2022/06/17 00:03:08;;;;;;;22.02;20.83;;;;;;;;;;5019175;28;20037;-69
2022/06/17 00:05:34;;;;;;;17.35;16.40;;;;;;;;;;5018863;28;20533;-69
2022/06/17 00:07:59;;;;;;;16.23;15.32;;;;;;;;;;5019595;28;20029;-69
2022/06/17 00:10:26;;;;;;;20.17;19.08;;;;;;;;;;5018699;28;20061;-70
2022/06/17 00:12:52;;;;;;;25.35;24.02;;;;;;;;;;5015418;28;20109;-69
2022/06/17 00:15:19;;;;;;;34.88;33.08;;;;;;;;;;5021644;28;20121;-69
2022/06/17 00:17:55;;;;;;;34.28;32.53;;;;;;;;;;5019918;28;20037;-69
2022/06/17 00:20:23;;;;;;;39.33;37.33;;;;;;;;;;5019285;28;20033;-69
2022/06/17 00:22:49;;;;;;;41.67;39.58;;;;;;;;;;5018167;28;20060;-69
2022/06/17 00:25:26;;;;;;;40.53;38.40;;;;;;;;;;5016621;28;20087;-69
2022/06/17 00:27:53;;;;;;;32.40;30.70;;;;;;;;;;5018694;28;20025;-69
2022/06/17 00:30:23;;;;;;;27.83;26.33;;;;;;;;;;5015726;28;20038;-68
2022/06/17 00:33:00;;;;;;;20.80;19.70;;;;;;;;;;5019184;28;20337;-68
2022/06/17 00:35:54;;;;;;;35.92;34.05;;;;;;;;;;5016440;28;20474;-68
2022/06/17 00:38:26;;;;;;;33.63;31.90;;;;;;;;;;5018142;28;20112;-67
2022/06/17 00:40:53;;;;;;;34.97;33.17;;;;;;;;;;5017809;28;20108;-67
2022/06/17 00:43:31;;;;;;;36.60;34.72;;;;;;;;;;5017801;28;20052;-66
2022/06/17 00:46:19;;;;;;;37.88;35.90;;;;;;;;;;5018424;28;20029;-66
2022/06/17 00:49:02;;;;;;;34.05;32.30;;;;;;;;;;5016295;28;20478;-66
2022/06/17 00:51:36;;;;;;;36.55;34.67;;;;;;;;;;5017398;28;20129;-67
2022/06/17 00:54:13;;;;;;;31.40;29.77;;;;;;;;;;5019229;28;20025;-68
2022/06/17 00:56:39;;;;;;;32.17;30.50;;;;;;;;;;5015700;28;20272;-68
2022/06/17 00:59:11;;;;;;;31.80;30.15;;;;;;;;;;5021675;28;20030;-68
2022/06/17 01:01:58;;;;;;;30.83;29.23;;;;;;;;;;5017865;28;20052;-69
2022/06/17 01:04:27;;;;;;;26.95;25.55;;;;;;;;;;5017288;28;20576;-69
2022/06/17 01:06:59;;;;;;;27.83;26.33;;;;;;;;;;5018718;28;20030;-68
2022/06/17 01:12:15;;;;;;;23.55;22.27;;;;;;;;;;5017862;28;20160;-69
2022/06/17 01:14:42;;;;;;;21.27;20.10;;;;;;;;;;5017831;28;20049;-68
2022/06/17 01:17:10;;;;;;;23.02;21.77;;;;;;;;;;5017234;28;20108;-69
2022/06/17 01:19:42;;;;;;;21.75;20.58;;;;;;;;;;5017318;28;20467;-69
2022/06/17 01:22:23;;;;;;;19.83;18.75;;;;;;;;;;5015348;28;20033;-69
2022/06/17 01:24:52;;;;;;;20.50;19.27;;;;;;;;;;5017833;28;20038;-69
2022/06/17 01:27:21;;;;;;;19.52;18.42;;;;;;;;;;5016939;28;20034;-68
2022/06/17 01:29:47;;;;;;;18.88;17.73;;;;;;;;;;5015425;28;20469;-69
2022/06/17 01:32:14;;;;;;;19.65;18.58;;;;;;;;;;5016514;28;20137;-69
2022/06/17 01:34:39;;;;;;;23.50;22.23;;;;;;;;;;5016180;28;20094;-69
2022/06/17 01:37:07;;;;;;;21.42;20.25;;;;;;;;;;5018592;28;20033;-69
2022/06/17 01:39:33;;;;;;;21.83;20.60;;;;;;;;;;5016179;28;20029;-69
2022/06/17 01:41:59;;;;;;;19.77;18.48;;;;;;;;;;5015772;28;20083;-68
2022/06/17 01:44:33;;;;;;;21.25;20.10;;;;;;;;;;5015653;28;20100;-69
2022/06/17 01:47:02;;;;;;;18.63;17.52;;;;;;;;;;5018218;28;20025;-69
2022/06/17 01:49:29;;;;;;;18.40;17.40;;;;;;;;;;5016132;28;20107;-68
2022/06/17 01:52:01;;;;;;;27.77;26.25;;;;;;;;;;5014161;28;20025;-69
2022/06/17 01:54:32;;;;;;;23.73;22.13;;;;;;;;;;5017045;28;20390;-69
2022/06/17 01:57:00;;;;;;;19.42;18.35;;;;;;;;;;5018172;28;20053;-68
2022/06/17 01:59:30;;;;;;;28.48;26.85;;;;;;;;;;5019668;28;20021;-68
2022/06/17 02:01:58;;;;;;;33.35;31.58;;;;;;;;;;5016693;28;20061;-68
2022/06/17 02:04:32;;;;;;;53.60;50.72;;;;;;;;;;5015981;28;20037;-69
2022/06/17 02:07:04;;;;;;;53.83;50.92;;;;;;;;;;5019003;28;20498;-68
2022/06/17 02:09:30;;;;;;;54.53;51.42;;;;;;;;;;5019156;28;20150;-69
2022/06/17 02:11:59;;;;;;;68.78;64.95;;;;;;;;;;5015333;28;20037;-69
2022/06/17 02:14:24;;;;;;;86.40;81.43;;;;;;;;;;5014711;28;20419;-68
2022/06/17 02:16:54;;;;;;;92.97;87.68;;;;;;;;;;5013413;28;20049;-68
2022/06/17 02:19:23;;;;;;;123.82;116.82;;;;;;;;;;5016043;28;20052;-68
2022/06/17 02:21:55;;;;;;;138.13;129.52;;;;;;;;;;5015273;28;20095;-68
2022/06/17 02:24:21;;;;;;;113.18;106.28;;;;;;;;;;5017005;28;20025;-69
2022/06/17 02:26:48;;;;;;;113.55;106.78;;;;;;;;;;5022730;28;20602;-71
2022/06/17 02:29:14;;;;;;;184.18;172.43;;;;;;;;;;5015508;28;20041;-69
2022/06/17 02:31:42;;;;;;;183.20;171.70;;;;;;;;;;5015593;28;20034;-69
2022/06/17 02:34:09;;;;;;;225.93;211.38;;;;;;;;;;5016644;28;20192;-68
2022/06/17 02:36:43;;;;;;;218.18;204.52;;;;;;;;;;5014975;28;20034;-68
2022/06/17 02:39:12;;;;;;;254.60;238.05;;;;;;;;;;5017061;28;20045;-69
2022/06/17 02:41:38;;;;;;;275.60;257.92;;;;;;;;;;5017338;28;20216;-69
2022/06/17 02:44:19;;;;;;;262.20;245.07;;;;;;;;;;5013880;28;20045;-70
2022/06/17 02:46:46;;;;;;;255.35;239.38;;;;;;;;;;5016298;28;20029;-69
2022/06/17 02:49:20;;;;;;;243.02;227.38;;;;;;;;;;5015043;28;20044;-69
2022/06/17 02:51:45;;;;;;;279.13;260.40;;;;;;;;;;5015884;28;20099;-69
2022/06/17 02:54:17;;;;;;;282.67;264.55;;;;;;;;;;5017085;28;20029;-69
2022/06/17 02:56:48;;;;;;;280.67;262.85;;;;;;;;;;5014703;28;20040;-69
2022/06/17 02:59:25;;;;;;;328.35;305.98;;;;;;;;;;5017824;28;20029;-62
2022/06/17 03:01:56;;;;;;;315.70;295.25;;;;;;;;;;5015364;28;20033;-62
2022/06/17 03:04:25;;;;;;;350.48;326.42;;;;;;;;;;5014506;28;20063;-62
2022/06/17 03:06:50;;;;;;;322.23;301.05;;;;;;;;;;5013943;28;20038;-62
2022/06/17 03:09:22;;;;;;;366.05;341.38;;;;;;;;;;5015274;28;20136;-62
2022/06/17 03:11:55;;;;;;;410.45;381.70;;;;;;;;;;5021832;28;20034;-62
2022/06/17 03:14:24;;;;;;;383.50;358.40;;;;;;;;;;5013429;28;20044;-62
2022/06/17 03:16:54;;;;;;;424.60;396.00;;;;;;;;;;5015920;28;20040;-62
2022/06/17 03:19:22;;;;;;;452.25;420.23;;;;;;;;;;5016343;28;20048;-62
2022/06/17 03:21:48;;;;;;;449.88;419.08;;;;;;;;;;5015577;28;20135;-62
2022/06/17 03:24:26;;;;;;;430.08;401.58;;;;;;;;;;5019140;28;20053;-61
2022/06/17 03:27:00;;;;;;;450.33;418.35;;;;;;;;;;5014325;28;20041;-62
2022/06/17 03:29:27;;;;;;;453.25;422.17;;;;;;;;;;5015439;28;20064;-62
2022/06/17 03:32:00;;;;;;;460.58;429.80;;;;;;;;;;5014231;28;20038;-61
2022/06/17 03:34:34;;;;;;;430.10;401.95;;;;;;;;;;5015749;28;20030;-62
2022/06/17 03:37:26;;;;;;;450.27;418.98;;;;;;;;;;5015113;28;20041;-62
2022/06/17 03:39:57;;;;;;;441.90;411.92;;;;;;;;;;5015661;28;20065;-62
2022/06/17 03:42:31;;;;;;;447.83;418.17;;;;;;;;;;5015092;28;20030;-62
2022/06/17 03:45:15;;;;;;;461.42;430.15;;;;;;;;;;5013098;28;20038;-61
2022/06/17 03:47:42;;;;;;;442.02;412.63;;;;;;;;;;5015103;28;20060;-62
2022/06/17 03:50:23;;;;;;;457.63;427.98;;;;;;;;;;5017367;28;20423;-62
2022/06/17 03:52:54;;;;;;;437.50;407.90;;;;;;;;;;5015154;28;20055;-61
2022/06/17 03:55:20;;;;;;;471.55;439.10;;;;;;;;;;5015349;28;20033;-61
2022/06/17 03:57:50;;;;;;;487.70;455.35;;;;;;;;;;5014562;28;20022;-61
2022/06/17 04:00:24;;;;;;;463.33;432.73;;;;;;;;;;5016805;28;20037;-61
2022/06/17 04:02:50;;;;;;;473.38;442.02;;;;;;;;;;5011367;28;20030;-61
2022/06/17 04:05:17;;;;;;;464.38;431.67;;;;;;;;;;5012780;28;20115;-61
2022/06/17 04:07:43;;;;;;;458.30;426.15;;;;;;;;;;5014889;28;20141;-61
2022/06/17 04:10:15;;;;;;;475.58;443.38;;;;;;;;;;5016944;28;20518;-61
2022/06/17 04:12:46;;;;;;;489.67;456.20;;;;;;;;;;5019414;28;20025;-61
2022/06/17 04:15:32;;;;;;;487.63;454.23;;;;;;;;;;5019130;28;20038;-61
2022/06/17 04:17:58;;;;;;;480.88;450.17;;;;;;;;;;5018444;28;20631;-69
2022/06/17 04:20:26;;;;;;;442.60;413.67;;;;;;;;;;5018806;28;20101;-69
2022/06/17 04:22:55;;;;;;;456.77;427.90;;;;;;;;;;5016400;28;20503;-69
2022/06/17 04:25:33;;;;;;;450.55;421.10;;;;;;;;;;5019790;28;20060;-69
2022/06/17 04:28:06;;;;;;;410.08;383.52;;;;;;;;;;5022379;28;20045;-68
2022/06/17 04:30:37;;;;;;;435.13;405.58;;;;;;;;;;5017280;28;20041;-68
2022/06/17 04:33:14;;;;;;;409.52;383.63;;;;;;;;;;5016409;28;20021;-68
2022/06/17 04:35:39;;;;;;;484.60;452.40;;;;;;;;;;5017597;28;20522;-68
2022/06/17 04:38:04;;;;;;;452.15;423.33;;;;;;;;;;5016886;28;20030;-68
2022/06/17 04:40:38;;;;;;;485.83;453.13;;;;;;;;;;5017210;28;20166;-68
2022/06/17 04:43:25;;;;;;;449.65;419.27;;;;;;;;;;5018886;28;20372;-68
2022/06/17 04:46:03;;;;;;;437.60;407.85;;;;;;;;;;5019274;28;20038;-67
2022/06/17 04:48:29;;;;;;;398.25;371.13;;;;;;;;;;5020303;28;20041;-68
2022/06/17 04:50:54;;;;;;;434.63;404.88;;;;;;;;;;5019344;28;20048;-68
2022/06/17 04:53:20;;;;;;;397.05;370.40;;;;;;;;;;5017181;28;20406;-67
2022/06/17 04:55:46;;;;;;;281.63;263.40;;;;;;;;;;5019417;28;20025;-67
2022/06/17 04:58:18;;;;;;;277.70;260.58;;;;;;;;;;5021451;28;20103;-67
2022/06/17 05:00:49;;;;;;;247.77;231.60;;;;;;;;;;5017279;28;20108;-67
2022/06/17 05:03:15;;;;;;;188.45;176.57;;;;;;;;;;5016363;28;20033;-67
2022/06/17 05:05:44;;;;;;;204.63;191.77;;;;;;;;;;5014676;28;20022;-67
2022/06/17 05:08:15;;;;;;;157.88;148.50;;;;;;;;;;5017294;28;20045;-67
2022/06/17 05:10:44;;;;;;;116.82;109.93;;;;;;;;;;5019600;28;20394;-67
2022/06/17 05:13:19;;;;;;;70.70;66.85;;;;;;;;;;5018901;28;20455;-67
2022/06/17 05:15:44;;;;;;;59.17;56.00;;;;;;;;;;5024646;28;20045;-66
2022/06/17 05:18:10;;;;;;;42.38;40.10;;;;;;;;;;5016750;28;20037;-67
2022/06/17 05:20:35;;;;;;;21.85;20.65;;;;;;;;;;5015659;28;20600;-67
2022/06/17 05:23:06;;;;;;;31.23;29.52;;;;;;;;;;5019224;28;20042;-67
2022/06/17 05:25:36;;;;;;;24.13;22.83;;;;;;;;;;5017195;28;20049;-68
2022/06/17 05:28:03;;;;;;;20.77;19.57;;;;;;;;;;5017506;28;20034;-66
2022/06/17 05:30:34;;;;;;;24.13;22.83;;;;;;;;;;5017940;28;21099;-68
2022/06/17 05:33:00;;;;;;;24.98;23.63;;;;;;;;;;5017886;28;20444;-68
2022/06/17 05:35:26;;;;;;;22.98;21.73;;;;;;;;;;5019451;28;20068;-69
2022/06/17 05:37:52;;;;;;;18.58;17.50;;;;;;;;;;5018999;28;20056;-69
2022/06/17 05:40:17;;;;;;;21.83;20.63;;;;;;;;;;5017491;28;20108;-68
2022/06/17 05:42:44;;;;;;;24.38;23.08;;;;;;;;;;5021330;28;20076;-69
2022/06/17 05:45:15;;;;;;;28.20;26.70;;;;;;;;;;5018644;28;20026;-68
2022/06/17 05:47:41;;;;;;;23.40;22.10;;;;;;;;;;5013922;28;20345;-69
2022/06/17 05:50:07;;;;;;;25.38;23.98;;;;;;;;;;5016147;28;20383;-69
2022/06/17 05:52:32;;;;;;;26.42;24.92;;;;;;;;;;5021341;28;20102;-69
2022/06/17 05:55:01;;;;;;;27.15;25.67;;;;;;;;;;5018340;28;20061;-69
2022/06/17 05:57:27;;;;;;;27.52;26.08;;;;;;;;;;5015763;28;20044;-69
2022/06/17 05:59:52;;;;;;;29.73;28.13;;;;;;;;;;5017390;28;20057;-69
2022/06/17 06:02:17;;;;;;;26.17;24.77;;;;;;;;;;5016082;28;20044;-69
2022/06/17 06:04:43;;;;;;;23.73;22.42;;;;;;;;;;5017556;28;20116;-71
2022/06/17 06:07:09;;;;;;;27.65;26.23;;;;;;;;;;5016134;28;20087;-68
2022/06/17 06:09:34;;;;;;;23.00;21.70;;;;;;;;;;5016432;28;20116;-69
2022/06/17 06:12:00;;;;;;;26.42;25.00;;;;;;;;;;5016276;28;20041;-69
2022/06/17 06:14:25;;;;;;;26.65;25.25;;;;;;;;;;5016632;28;20033;-69
2022/06/17 06:16:50;;;;;;;29.90;28.30;;;;;;;;;;5016500;28;20041;-61
2022/06/17 06:19:15;;;;;;;30.35;28.75;;;;;;;;;;5014341;28;20582;-60
2022/06/17 06:21:41;;;;;;;30.13;28.52;;;;;;;;;;5015591;28;20036;-60
2022/06/17 06:24:07;;;;;;;34.05;32.30;;;;;;;;;;5013008;28;20038;-60
2022/06/17 06:26:33;;;;;;;31.90;30.23;;;;;;;;;;5033794;28;20030;-60
2022/06/17 06:28:59;;;;;;;33.50;31.80;;;;;;;;;;5018339;28;20041;-60
2022/06/17 06:31:32;;;;;;;33.67;31.95;;;;;;;;;;5016289;28;20029;-60
2022/06/17 06:33:57;;;;;;;33.05;31.35;;;;;;;;;;5017146;28;20541;-60
2022/06/17 06:36:23;;;;;;;38.78;36.78;;;;;;;;;;5020190;28;20072;-60
2022/06/17 06:38:49;;;;;;;24.90;23.60;;;;;;;;;;5017358;28;20116;-60
2022/06/17 06:41:14;;;;;;;36.47;34.58;;;;;;;;;;5017175;28;20029;-61
2022/06/17 06:43:41;;;;;;;34.78;32.97;;;;;;;;;;5014889;28;20120;-60
2022/06/17 06:46:10;;;;;;;29.98;28.38;;;;;;;;;;5019029;28;20041;-61
2022/06/17 06:48:36;;;;;;;29.30;27.80;;;;;;;;;;5031536;28;20485;-62
2022/06/17 06:51:02;;;;;;;29.17;27.48;;;;;;;;;;5014718;28;20056;-62
2022/06/17 06:53:27;;;;;;;31.55;29.90;;;;;;;;;;5011940;28;20025;-61
2022/06/17 06:55:52;;;;;;;27.83;26.33;;;;;;;;;;5012210;28;20505;-61
2022/06/17 06:58:21;;;;;;;32.88;31.17;;;;;;;;;;5029883;28;20038;-61
2022/06/17 07:00:48;;;;;;;31.23;29.63;;;;;;;;;;5016279;28;20455;-62
2022/06/17 07:03:15;;;;;;;34.90;33.10;;;;;;;;;;5016914;28;20048;-61
2022/06/17 07:05:43;;;;;;;35.38;33.42;;;;;;;;;;5018371;28;20025;-62
2022/06/17 07:08:14;;;;;;;36.33;34.45;;;;;;;;;;5016075;28;20503;-62
2022/06/17 07:10:39;;;;;;;;;;;;;;;;;;5012231;28;20037;-62
2022/06/17 07:13:08;;;;;;;32.80;31.08;;;;;;;;;;5020504;28;19909;-62
2022/06/17 07:15:39;;;;;;;47.08;44.67;;;;;;;;;;5015752;28;20033;-62
2022/06/17 07:18:16;;;;;;;22.00;20.80;;;;;;;;;;5017519;28;20592;-62
2022/06/17 07:20:47;;;;;;;48.72;46.28;;;;;;;;;;5034699;28;20450;-62
2022/06/17 07:23:18;;;;;;;38.13;36.17;;;;;;;;;;5015766;28;20132;-62
2022/06/17 07:25:44;;;;;;;33.03;31.33;;;;;;;;;;5016951;28;20379;-62
2022/06/17 07:28:15;;;;;;;63.90;60.70;;;;;;;;;;5016826;28;20045;-62
2022/06/17 07:30:44;;;;;;;32.35;30.60;;;;;;;;;;5015809;28;20839;-62
2022/06/17 07:33:10;;;;;;;37.08;35.15;;;;;;;;;;5013016;28;20033;-62
2022/06/17 07:35:36;;;;;;;64.22;60.97;;;;;;;;;;5015775;28;20577;-62
2022/06/17 07:40:48;;;;;;;34.70;32.90;;;;;;;;;;5016429;28;20113;-62
2022/06/17 07:43:15;;;;;;;48.25;45.85;;;;;;;;;;5014262;28;20034;-62
2022/06/17 07:45:41;;;;;;;40.30;38.20;;;;;;;;;;5018753;28;20037;-62
2022/06/17 07:48:07;;;;;;;37.95;36.03;;;;;;;;;;5019445;28;20040;-62
2022/06/17 07:50:33;;;;;;;30.17;28.60;;;;;;;;;;5019313;28;20049;-62
2022/06/17 07:52:59;;;;;;;37.70;35.78;;;;;;;;;;5022513;28;20608;-62
2022/06/17 07:55:24;;;;;;;31.90;30.25;;;;;;;;;;5024042;28;20240;-62
2022/06/17 07:57:50;;;;;;;30.58;28.98;;;;;;;;;;5020313;28;20033;-61
2022/06/17 08:00:30;;;;;;;31.98;30.27;;;;;;;;;;5017601;28;20036;-61
2022/06/17 08:02:55;;;;;;;29.38;27.77;;;;;;;;;;5020048;28;20037;-60
2022/06/17 08:05:21;;;;;;;33.35;31.65;;;;;;;;;;5019267;28;20036;-60
2022/06/17 08:07:51;;;;;;;36.05;34.17;;;;;;;;;;5022527;28;20111;-60
2022/06/17 08:10:20;;;;;;;28.60;27.08;;;;;;;;;;5033682;28;20064;-60
2022/06/17 08:12:45;;;;;;;42.90;40.72;;;;;;;;;;5019510;28;20026;-59
2022/06/17 08:15:12;;;;;;;64.95;61.72;;;;;;;;;;5019848;28;20071;-60
2022/06/17 08:17:39;;;;;;;34.05;32.30;;;;;;;;;;5017633;28;20026;-60
2022/06/17 08:20:09;;;;;;;24.67;23.38;;;;;;;;;;5020829;28;20478;-60
2022/06/17 08:22:36;;;;;;;66.82;63.50;;;;;;;;;;5018790;28;20057;-60
2022/06/17 08:25:02;;;;;;;32.58;30.90;;;;;;;;;;5019350;28;20042;-60
2022/06/17 08:27:27;;;;;;;67.10;63.75;;;;;;;;;;5018903;28;20111;-59
2022/06/17 08:29:53;;;;;;;71.15;67.63;;;;;;;;;;5016331;28;20052;-59
2022/06/17 08:35:03;;;;;;;61.80;58.70;;;;;;;;;;5018854;28;20447;-60
2022/06/17 08:37:28;;;;;;;67.65;64.30;;;;;;;;;;5018049;28;20048;-60
2022/06/17 08:39:54;;;;;;;64.57;61.38;;;;;;;;;;5014838;28;20030;-60
2022/06/17 08:42:43;;;;;;;54.90;52.13;;;;;;;;;;5019656;28;20471;-60
2022/06/17 08:45:35;;;;;;;63.33;60.17;;;;;;;;;;5019710;28;20585;-60
2022/06/17 08:48:24;;;;;;;64.28;60.97;;;;;;;;;;5015892;28;20045;-60
2022/06/17 08:51:23;;;;;;;80.75;76.75;;;;;;;;;;5016579;28;20092;-60
2022/06/17 08:54:21;;;;;;;81.15;77.15;;;;;;;;;;5016716;28;20103;-60
2022/06/17 08:57:01;;;;;;;91.68;87.07;;;;;;;;;;5017458;28;20045;-60
2022/06/17 08:59:54;;;;;;;125.68;119.50;;;;;;;;;;5017982;28;20407;-60
2022/06/17 09:02:38;;;;;;;126.03;119.82;;;;;;;;;;5019471;28;20658;-60
2022/06/17 09:05:12;;;;;;;141.25;134.27;;;;;;;;;;5018921;28;20053;-60
2022/06/17 09:07:52;;;;;;;127.22;120.97;;;;;;;;;;5024092;28;20508;-60
2022/06/17 09:10:36;;;;;;;113.90;108.30;;;;;;;;;;5017719;28;20041;-60
2022/06/17 09:13:14;;;;;;;126.65;120.35;;;;;;;;;;5019428;28;20059;-60
2022/06/17 09:15:52;;;;;;;92.03;87.50;;;;;;;;;;5000018;28;20025;-60
2022/06/17 09:18:46;;;;;;;112.35;106.85;;;;;;;;;;5018236;28;20790;-60
2022/06/17 09:21:18;;;;;;;128.07;121.68;;;;;;;;;;5015346;28;20049;-60
2022/06/17 09:23:44;;;;;;;145.45;138.30;;;;;;;;;;5014916;28;20432;-60
2022/06/17 09:26:29;;;;;;;198.85;189.13;;;;;;;;;;5017598;28;20025;-60
2022/06/17 09:29:11;;;;;;;105.15;99.97;;;;;;;;;;5013341;28;20049;-60
2022/06/17 09:31:41;;;;;;;87.43;83.13;;;;;;;;;;5017081;28;20037;-60
2022/06/17 09:34:19;;;;;;;101.25;96.25;;;;;;;;;;5016892;28;20025;-60
2022/06/17 09:36:54;;;;;;;94.80;90.15;;;;;;;;;;5017058;28;20119;-60
2022/06/17 09:39:34;;;;;;;175.52;166.88;;;;;;;;;;5017112;28;20032;-60
2022/06/17 09:42:05;;;;;;;159.80;151.93;;;;;;;;;;5018072;28;20044;-60
2022/06/17 09:44:32;;;;;;;127.90;121.63;;;;;;;;;;5018770;28;20033;-60
2022/06/17 09:47:07;;;;;;;175.32;166.73;;;;;;;;;;5017586;28;20124;-60
2022/06/17 09:49:47;;;;;;;177.02;168.32;;;;;;;;;;5018211;28;20071;-61
2022/06/17 09:52:24;;;;;;;163.55;155.55;;;;;;;;;;5017771;28;20520;-61
2022/06/17 09:55:16;;;;;;;172.13;163.65;;;;;;;;;;5018902;28;20156;-61
2022/06/17 09:57:59;;;;;;;195.68;186.07;;;;;;;;;;5016030;28;20151;-62
2022/06/17 10:00:31;;;;;;;136.88;130.20;;;;;;;;;;5014943;28;20041;-62
2022/06/17 10:03:21;;;;;;;174.02;165.43;;;;;;;;;;5015982;28;20678;-62
2022/06/17 10:05:53;;;;;;;195.88;186.32;;;;;;;;;;5017293;28;20120;-62
2022/06/17 10:08:36;;;;;;;181.95;173.05;;;;;;;;;;5015873;28;20530;-62
2022/06/17 10:11:39;;;;;;;178.00;169.13;;;;;;;;;;5016936;28;20141;-61
2022/06/17 10:14:10;;;;;;;164.10;155.90;;;;;;;;;;5017932;28;20022;-60
2022/06/17 10:20:01;;;;;;;173.88;165.30;;;;;;;;;;5017545;28;20067;-60
2022/06/17 10:22:55;;;;;;;180.23;171.38;;;;;;;;;;5016990;28;20041;-61
2022/06/17 10:25:32;;;;;;;172.63;164.10;;;;;;;;;;5016365;28;20025;-61
2022/06/17 10:28:17;;;;;;;176.35;167.70;;;;;;;;;;5016016;28;20033;-61
2022/06/17 10:30:54;;;;;;;165.40;157.13;;;;;;;;;;5015816;28;20396;-61
2022/06/17 10:33:21;;;;;;;168.95;160.65;;;;;;;;;;5017943;28;20117;-61
2022/06/17 10:35:47;;;;;;;172.80;164.30;;;;;;;;;;5016995;28;20087;-61
2022/06/17 10:38:19;;;;;;;167.50;159.25;;;;;;;;;;5014820;28;20898;-61
2022/06/17 10:40:44;;;;;;;205.27;195.30;;;;;;;;;;5015426;28;20037;-61
2022/06/17 10:43:14;;;;;;;177.18;168.50;;;;;;;;;;5015056;28;20118;-61
2022/06/17 10:45:40;;;;;;;199.13;189.23;;;;;;;;;;5015229;28;20147;-61
2022/06/17 10:48:14;;;;;;;186.15;177.05;;;;;;;;;;5016150;28;20545;-61
2022/06/17 10:50:39;;;;;;;184.30;175.30;;;;;;;;;;5017776;28;20029;-62
2022/06/17 10:53:32;;;;;;;179.10;170.32;;;;;;;;;;5015091;28;20676;-61
2022/06/17 10:56:01;;;;;;;168.55;160.25;;;;;;;;;;5016275;28;20025;-61
2022/06/17 10:58:29;;;;;;;159.48;151.65;;;;;;;;;;5018348;28;20022;-61
2022/06/17 11:01:07;;;;;;;152.15;144.65;;;;;;;;;;5016982;28;20049;-61
2022/06/17 11:03:41;;;;;;;149.52;142.18;;;;;;;;;;5014087;28;20029;-61
2022/06/17 11:06:09;;;;;;;133.40;126.85;;;;;;;;;;5014286;28;20120;-61
2022/06/17 11:08:39;;;;;;;152.85;145.27;;;;;;;;;;5015294;28;20049;-61
2022/06/17 11:13:55;;;;;;;152.57;145.07;;;;;;;;;;5000858;28;20006;-61
2022/06/17 11:16:23;;;;;;;176.65;167.95;;;;;;;;;;5014958;28;20072;-61
2022/06/17 11:18:55;;;;;;;149.40;142.05;;;;;;;;;;5012293;28;20475;-62
2022/06/17 11:21:30;;;;;;;144.30;137.20;;;;;;;;;;5015592;28;20030;-61
2022/06/17 11:23:58;;;;;;;177.88;169.13;;;;;;;;;;5017402;28;20038;-62
2022/06/17 11:26:30;;;;;;;177.73;169.00;;;;;;;;;;5014295;28;20101;-61
2022/06/17 11:29:02;;;;;;;166.18;157.98;;;;;;;;;;5015191;28;20061;-62
2022/06/17 11:31:28;;;;;;;126.88;120.60;;;;;;;;;;5015752;28;20029;-61
2022/06/17 11:33:53;;;;;;;135.23;128.55;;;;;;;;;;5015004;28;20053;-61
2022/06/17 11:36:25;;;;;;;135.68;128.98;;;;;;;;;;5015220;28;20053;-61
2022/06/17 11:38:51;;;;;;;136.02;129.30;;;;;;;;;;5014179;28;20029;-61
2022/06/17 11:41:27;;;;;;;132.57;126.05;;;;;;;;;;5016155;28;20419;-62
2022/06/17 11:44:06;;;;;;;129.30;122.90;;;;;;;;;;5015725;28;20415;-62
2022/06/17 11:46:34;;;;;;;118.35;112.32;;;;;;;;;;5015494;28;20115;-62
2022/06/17 11:49:13;;;;;;;114.57;108.93;;;;;;;;;;5015358;28;20045;-63
2022/06/17 11:51:49;;;;;;;134.05;127.45;;;;;;;;;;5021866;28;21009;-61
2022/06/17 11:54:22;;;;;;;108.18;102.88;;;;;;;;;;5015972;28;20038;-62
2022/06/17 11:56:48;;;;;;;144.20;137.07;;;;;;;;;;5014105;28;20029;-62
2022/06/17 11:59:15;;;;;;;113.75;108.15;;;;;;;;;;5016229;28;20434;-63
2022/06/17 12:02:05;;;;;;;105.25;100.05;;;;;;;;;;5013948;28;20053;-62
2022/06/17 12:04:42;;;;;;;102.05;97.05;;;;;;;;;;5013717;28;20116;-63
2022/06/17 12:07:38;;;;;;;118.80;113.00;;;;;;;;;;5015552;28;20088;-62
2022/06/17 12:10:33;;;;;;;112.85;107.30;;;;;;;;;;5014656;28;20041;-62
2022/06/17 12:13:07;;;;;;;115.28;109.55;;;;;;;;;;5003238;28;20052;-63
2022/06/17 12:15:38;;;;;;;113.70;108.10;;;;;;;;;;5016052;28;20030;-62
2022/06/17 12:18:06;;;;;;;109.05;103.65;;;;;;;;;;5014760;28;20040;-62
2022/06/17 12:20:55;;;;;;;111.03;105.53;;;;;;;;;;5012499;28;20033;-62
2022/06/17 12:23:31;;;;;;;119.78;113.90;;;;;;;;;;5014375;28;20033;-62
2022/06/17 12:25:59;;;;;;;121.30;115.30;;;;;;;;;;5014312;28;20026;-62
2022/06/17 12:29:15;;;;;;;119.00;113.15;;;;;;;;;;5016287;28;20044;-62
2022/06/17 12:31:52;;;;;;;124.78;118.63;;;;;;;;;;5006091;28;20139;-61
2022/06/17 12:34:45;;;;;;;119.53;113.65;;;;;;;;;;5016078;28;20035;-61
2022/06/17 12:37:32;;;;;;;111.20;105.75;;;;;;;;;;5033330;28;20179;-62
2022/06/17 12:40:06;;;;;;;109.88;104.47;;;;;;;;;;5016872;28;20091;-62
2022/06/17 12:42:47;;;;;;;114.75;109.05;;;;;;;;;;5020362;28;20033;-62
2022/06/17 12:45:28;;;;;;;112.75;107.22;;;;;;;;;;5020066;28;20025;-61
2022/06/17 12:48:19;;;;;;;107.32;102.03;;;;;;;;;;5015889;28;20047;-69
2022/06/17 12:53:52;;;;;;;107.85;102.53;;;;;;;;;;5017109;28;20237;-66
2022/06/17 12:56:25;;;;;;;97.88;93.07;;;;;;;;;;5016012;28;20455;-70
2022/06/17 12:59:08;;;;;;;97.10;92.35;;;;;;;;;;5017511;28;20038;-69
2022/06/17 13:01:42;;;;;;;92.05;87.53;;;;;;;;;;5018625;28;20033;-71
2022/06/17 13:04:31;;;;;;;91.53;87.03;;;;;;;;;;5016809;28;20472;-71
2022/06/17 13:07:17;;;;;;;107.17;101.90;;;;;;;;;;5016206;28;20080;-70
2022/06/17 13:10:39;;;;;;;105.50;100.28;;;;;;;;;;5016962;28;20318;-70
2022/06/17 13:12:55;;;;;;;101.88;96.88;;;;;;;;;;5018890;28;20545;-71
2022/06/17 13:15:25;;;;;;;121.30;115.35;;;;;;;;;;5016682;28;20173;-71
2022/06/17 13:17:57;;;;;;;117.95;112.15;;;;;;;;;;5018038;28;20403;-70
2022/06/17 13:20:33;;;;;;;109.65;104.25;;;;;;;;;;5022132;28;20029;-70
2022/06/17 13:23:03;;;;;;;112.40;106.85;;;;;;;;;;5017996;28;20041;-71
2022/06/17 13:25:28;;;;;;;120.35;114.43;;;;;;;;;;5017389;28;20042;-71
2022/06/17 13:28:12;;;;;;;117.75;111.97;;;;;;;;;;5020215;28;20734;-71
2022/06/17 13:31:04;;;;;;;123.45;116.88;;;;;;;;;;5021166;28;20026;-70
2022/06/17 13:33:36;;;;;;;136.38;129.68;;;;;;;;;;5017223;28;20040;-70
2022/06/17 13:36:09;;;;;;;122.57;116.55;;;;;;;;;;5019583;28;20037;-71
2022/06/17 13:38:43;;;;;;;132.80;126.28;;;;;;;;;;5016998;28;20040;-70
2022/06/17 13:41:21;;;;;;;131.13;124.65;;;;;;;;;;5018593;28;20045;-70
2022/06/17 13:44:20;;;;;;;131.05;124.57;;;;;;;;;;5015844;28;20041;-70
2022/06/17 13:47:24;;;;;;;118.65;112.82;;;;;;;;;;5016530;28;20065;-70
2022/06/17 13:50:01;;;;;;;95.25;90.55;;;;;;;;;;4973083;28;20701;-70
2022/06/17 13:52:36;;;;;;;113.20;107.60;;;;;;;;;;4975679;28;20105;-70
2022/06/17 13:55:22;;;;;;;96.10;91.38;;;;;;;;;;4999984;28;20049;-70
2022/06/17 13:58:02;;;;;;;119.70;113.80;;;;;;;;;;5018007;28;20650;-69
2022/06/17 14:00:33;;;;;;;113.85;108.28;;;;;;;;;;5013632;28;20127;-70
2022/06/17 14:03:05;;;;;;;89.20;84.80;;;;;;;;;;5014876;28;20091;-70
2022/06/17 14:05:32;;;;;;;98.78;93.88;;;;;;;;;;5017406;28;20844;-70
2022/06/17 14:08:05;;;;;;;90.57;86.13;;;;;;;;;;5015311;28;20041;-70
2022/06/17 14:10:43;;;;;;;80.30;76.28;;;;;;;;;;5031005;28;20173;-70
2022/06/17 14:13:32;;;;;;;107.05;101.80;;;;;;;;;;5017037;28;20022;-70
2022/06/17 14:16:27;;;;;;;116.57;110.85;;;;;;;;;;5015259;28;20050;-70
2022/06/17 14:18:58;;;;;;;93.13;88.53;;;;;;;;;;5016201;28;20053;-70
2022/06/17 14:21:42;;;;;;;98.38;93.53;;;;;;;;;;5016752;28;20068;-69
2022/06/17 14:24:11;;;;;;;89.63;85.20;;;;;;;;;;5018552;28;20076;-68
2022/06/17 14:26:39;;;;;;;94.73;90.03;;;;;;;;;;5017040;28;20124;-68
2022/06/17 14:29:08;;;;;;;107.85;102.55;;;;;;;;;;5016479;28;20040;-69
2022/06/17 14:31:36;;;;;;;118.05;112.25;;;;;;;;;;5015973;28;20033;-69
2022/06/17 14:34:16;;;;;;;107.13;101.88;;;;;;;;;;5015770;28;20044;-69
2022/06/17 14:37:04;;;;;;;129.02;122.65;;;;;;;;;;5031808;28;20651;-69
2022/06/17 14:39:39;;;;;;;142.02;135.02;;;;;;;;;;5030740;28;20073;-70
2022/06/17 14:42:10;;;;;;;131.88;125.38;;;;;;;;;;5016028;28;20112;-70
2022/06/17 14:44:43;;;;;;;94.57;89.93;;;;;;;;;;5013866;28;20017;-68
2022/06/17 14:47:29;;;;;;;100.28;95.32;;;;;;;;;;5016109;28;20037;-69
2022/06/17 14:50:31;;;;;;;86.47;82.20;;;;;;;;;;5015194;28;20116;-68
2022/06/17 14:52:56;;;;;;;85.30;81.10;;;;;;;;;;5017790;28;20033;-69